Storm Lake, IA

12:14 AM CDT on April 27, 2018 (GMT -0500)
Storm Lake Municipal

Weather History for KSLB - December, 2011

Change the Weather History Date:

Thursday, December 22, 2011

  Actual Average Record
Temperature  
Mean Temperature 22 °F -  
Max Temperature 29 °F 27 °F 44 °F (2005)
Min Temperature 14 °F 11 °F -11 °F (2000)
Degree Days  
Heating Degree Days 44    
Moisture  
Dew Point 15 °F    
Average Humidity 74    
Maximum Humidity 90    
Minimum Humidity 61    
Precipitation  
Precipitation 0.00 in - - ()
Sea Level Pressure  
Sea Level Pressure 30.25 in    
Wind  
Wind Speed 16 mph (North)    
Max Wind Speed 22 mph    
Max Gust Speed 31 mph    
Visibility 10 miles    
Events      
Averages and records for this station are not official NWS values.
T = Trace of Precipitation, MM = Missing Value Source: NWS Daily Summary

Daily Weather History Graph

Daily Weather History Graph

Search for Another Location

Airport or City:

Astronomy

Dec. 22, 2011 Rise Set
Actual Time 7:48 AM CST 4:51 PM CST
Civil Twilight 7:15 AM CST 5:23 PM CST
Nautical Twilight 6:40 AM CST 5:58 PM CST
Astronomical Twilight 6:05 AM CST 6:33 PM CST
Moon 5:32 AM CST (12/22) 3:02 PM CST (12/22)
Length of Visible Light 10h 07m
Length of Day
9h 02m
Waning Crescent, 5% of the Moon is Illuminated
Dec 22
Waning Crescent
Dec 24
New
Jan 1
First Quarter
Jan 9
Full
Jan 16
Last Quarter

Hourly Weather History & Observations

Time (CST) Temp. Windchill Dew Point Humidity Pressure Visibility Wind Dir Wind Speed Gust Speed Precip Events Conditions
12:15 AM 29.3 °F 17.3 °F 26.6 °F 90% 30.02 in 10.0 mi North 17.3 mph 25.3 mph N/A   Overcast
12:35 AM 29.1 °F 16.0 °F 24.1 °F 81% 30.04 in 10.0 mi North 20.7 mph 31.1 mph N/A   Overcast
12:55 AM 28.6 °F 15.6 °F 22.3 °F 77% 30.04 in 10.0 mi North 19.6 mph 26.5 mph N/A   Overcast
1:15 AM 28.2 °F 14.5 °F 21.2 °F 75% 30.05 in 10.0 mi North 21.9 mph 31.1 mph N/A   Overcast
1:55 AM 26.8 °F 13.7 °F 20.5 °F 77% 30.08 in 10.0 mi North 18.4 mph 27.6 mph N/A   Overcast
2:15 AM 25.9 °F 12.1 °F 19.9 °F 78% 30.09 in 10.0 mi North 19.6 mph 27.6 mph N/A   Overcast
2:35 AM 25.3 °F 10.7 °F 18.9 °F 76% 30.10 in 10.0 mi North 21.9 mph 27.6 mph N/A   Overcast
2:55 AM 24.1 °F 10.1 °F 17.6 °F 76% 30.11 in 10.0 mi North 18.4 mph - N/A   Overcast
3:15 AM 23.7 °F 11.5 °F 18.3 °F 80% 30.13 in 10.0 mi North 13.8 mph - N/A   Overcast
3:35 AM 23.4 °F 10.6 °F 18.5 °F 82% 30.13 in 10.0 mi North 15.0 mph 20.7 mph N/A   Overcast
3:55 AM 23.0 °F 9.6 °F 18.3 °F 82% 30.13 in 10.0 mi North 16.1 mph - N/A   Overcast
4:15 AM 22.8 °F 9.9 °F 18.3 °F 83% 30.14 in 10.0 mi North 15.0 mph - N/A   Scattered Clouds
4:35 AM 22.3 °F 7.8 °F 18.0 °F 83% 30.15 in 10.0 mi North 18.4 mph 23.0 mph N/A   Scattered Clouds
4:55 AM 22.1 °F 8.5 °F 17.6 °F 83% 30.16 in 10.0 mi North 16.1 mph - N/A   Scattered Clouds
5:35 AM 21.9 °F 8.7 °F 16.7 °F 80% 30.19 in 10.0 mi North 15.0 mph - N/A   Clear
5:55 AM 21.6 °F 8.2 °F 16.7 °F 82% 30.19 in 10.0 mi North 15.0 mph 20.7 mph N/A   Clear
6:15 AM 21.2 °F 6.4 °F 16.0 °F 80% 30.20 in 10.0 mi North 18.4 mph 24.2 mph N/A   Clear
6:35 AM 21.0 °F 6.6 °F 14.2 °F 75% 30.21 in 10.0 mi North 17.3 mph 23.0 mph N/A   Clear
6:55 AM 20.3 °F 5.7 °F 13.1 °F 74% 30.21 in 10.0 mi North 17.3 mph 26.5 mph N/A   Clear
7:15 AM 19.4 °F 4.1 °F 12.4 °F 74% 30.22 in 10.0 mi North 18.4 mph 24.2 mph N/A   Clear
7:35 AM 19.0 °F 4.0 °F 11.7 °F 73% 30.23 in 10.0 mi North 17.3 mph 21.9 mph N/A   Clear
8:15 AM 18.0 °F 2.2 °F 11.1 °F 75% 30.24 in 10.0 mi North 18.4 mph 21.9 mph N/A   Clear
8:35 AM 18.1 °F 3.9 °F 11.1 °F 74% 30.26 in 10.0 mi North 15.0 mph 23.0 mph N/A   Clear
8:55 AM 18.7 °F 3.6 °F 11.3 °F 73% 30.28 in 10.0 mi North 17.3 mph 21.9 mph N/A   Clear
9:35 AM 19.6 °F 4.7 °F 11.7 °F 71% 30.30 in 10.0 mi North 17.3 mph 25.3 mph N/A   Clear
9:55 AM 20.1 °F 5.9 °F 11.7 °F 70% 30.32 in 10.0 mi North 16.1 mph 26.5 mph N/A   Clear
10:15 AM 20.5 °F 6.9 °F 11.8 °F 69% 30.32 in 10.0 mi North 15.0 mph 20.7 mph N/A   Clear
10:35 AM 21.0 °F 6.2 °F 12.4 °F 69% 30.32 in 10.0 mi North 18.4 mph - N/A   Clear
10:55 AM 21.6 °F 7.8 °F 13.1 °F 70% 30.32 in 10.0 mi North 16.1 mph - N/A   Clear
11:15 AM 21.9 °F 8.2 °F 13.3 °F 69% 30.32 in 10.0 mi North 16.1 mph 26.5 mph N/A   Clear
11:35 AM 22.5 °F 8.9 °F 13.8 °F 69% 30.31 in 10.0 mi North 16.1 mph 23.0 mph N/A   Clear
11:55 AM 23.0 °F 7.6 °F 14.2 °F 69% 30.31 in 10.0 mi North 21.9 mph - N/A   Clear
12:15 PM 23.4 °F 9.2 °F 13.8 °F 67% 30.31 in 10.0 mi North 18.4 mph 24.2 mph N/A   Clear
12:35 PM 23.9 °F 9.1 °F 14.4 °F 67% 30.31 in 10.0 mi North 20.7 mph 27.6 mph N/A   Clear
12:55 PM 24.1 °F 10.6 °F 14.4 °F 66% 30.31 in 10.0 mi North 17.3 mph - N/A   Clear
1:15 PM 24.4 °F 9.5 °F 14.0 °F 65% 30.31 in 10.0 mi North 21.9 mph 26.5 mph N/A   Clear
1:35 PM 24.6 °F 10.1 °F 14.0 °F 64% 30.31 in 10.0 mi North 20.7 mph - N/A   Clear
1:55 PM 24.8 °F 12.9 °F 14.2 °F 64% 30.31 in 10.0 mi North 13.8 mph 21.9 mph N/A   Clear
2:15 PM 25.2 °F 12.4 °F 14.4 °F 64% 30.31 in 10.0 mi NNW 16.1 mph - N/A   Clear
2:35 PM 25.7 °F 12.7 °F 14.4 °F 62% 30.31 in 10.0 mi NNW 17.3 mph - N/A   Clear
2:55 PM 25.7 °F 13.5 °F 13.8 °F 61% 30.30 in 10.0 mi NNW 15.0 mph - N/A   Clear
3:35 PM 25.7 °F 15.1 °F 14.0 °F 61% 30.32 in 10.0 mi North 11.5 mph - N/A   Clear
3:55 PM 25.3 °F 16.0 °F 13.8 °F 62% 30.32 in 10.0 mi North 9.2 mph - N/A   Clear
4:15 PM 24.8 °F 16.1 °F 14.0 °F 64% 30.33 in 10.0 mi North 8.1 mph - N/A   Clear
4:35 PM 23.4 °F 16.2 °F 14.0 °F 67% 30.32 in 10.0 mi North 5.8 mph - N/A   Clear
4:55 PM 21.0 °F 13.4 °F 13.3 °F 72% 30.33 in 10.0 mi North 5.8 mph - N/A   Clear
5:15 PM 19.8 °F 13.2 °F 12.9 °F 75% 30.33 in 10.0 mi NNW 4.6 mph - N/A   Clear
5:35 PM 19.8 °F 13.2 °F 12.7 °F 74% 30.33 in 10.0 mi NNW 4.6 mph - N/A   Clear
5:55 PM 20.3 °F 15.4 °F 13.3 °F 74% 30.33 in 10.0 mi NNW 3.5 mph - N/A   Clear
6:15 PM 20.7 °F 15.8 °F 13.8 °F 75% 30.33 in 10.0 mi NNW 3.5 mph - N/A   Clear
6:35 PM 20.1 °F - 13.8 °F 77% 30.33 in 10.0 mi Calm Calm - N/A   Clear
6:55 PM 20.3 °F 15.4 °F 13.8 °F 76% 30.34 in 10.0 mi NW 3.5 mph - N/A   Clear
7:15 PM 19.4 °F 11.5 °F 12.9 °F 76% 30.34 in 10.0 mi NW 5.8 mph - N/A   Clear
7:35 PM 16.0 °F 6.3 °F 11.1 °F 81% 30.34 in 10.0 mi West 6.9 mph - N/A   Clear
8:15 PM 14.2 °F 3.1 °F 10.6 °F 86% 30.34 in 10.0 mi West 8.1 mph - N/A   Clear
8:35 PM 14.7 °F 2.1 °F 11.1 °F 86% 30.35 in 10.0 mi West 10.4 mph - N/A   Clear
9:15 PM 14.4 °F 2.4 °F 10.6 °F 85% 30.35 in 10.0 mi West 9.2 mph - N/A   Clear
9:35 PM 14.0 °F 1.2 °F 10.4 °F 86% 30.35 in 10.0 mi West 10.4 mph - N/A   Clear
9:55 PM 14.0 °F 0.5 °F 10.8 °F 87% 30.35 in 10.0 mi West 11.5 mph - N/A   Clear
10:15 PM 13.6 °F 0.7 °F 10.6 °F 88% 30.35 in 10.0 mi West 10.4 mph - N/A   Clear
10:35 PM 12.9 °F -0.2 °F 10.2 °F 89% 30.35 in 10.0 mi West 10.4 mph - N/A   Clear
10:55 PM 12.4 °F -0.8 °F 9.9 °F 90% 30.35 in 10.0 mi West 10.4 mph - N/A   Clear
11:15 PM 12.0 °F -0.4 °F 9.5 °F 90% 30.35 in 10.0 mi West 9.2 mph - N/A   Clear
11:35 PM 13.1 °F 1.8 °F 10.2 °F 88% 30.35 in 10.0 mi WSW 8.1 mph - N/A   Clear
11:55 PM 13.5 °F 2.2 °F 10.0 °F 86% 30.35 in 10.0 mi WSW 8.1 mph - N/A   Clear